createdAt,value
2022-12-24T00:00:13.435Z,69.19
2022-12-24T00:01:06.744Z,68.97
2022-12-24T00:01:38.886Z,68.90
2022-12-24T00:02:10.950Z,68.85
2022-12-24T00:02:43.212Z,68.89
2022-12-24T00:03:15.391Z,69.07
2022-12-24T00:03:47.559Z,69.20
2022-12-24T00:04:19.850Z,68.94
2022-12-24T00:04:55.720Z,68.78
2022-12-24T00:05:32.697Z,68.84
2022-12-24T00:06:08.804Z,68.99
2022-12-24T00:06:40.971Z,68.97
2022-12-24T00:07:12.842Z,68.97
2022-12-24T00:07:44.911Z,68.91
2022-12-24T00:08:16.983Z,68.77
2022-12-24T00:08:50.914Z,68.63
2022-12-24T00:09:22.985Z,68.63
2022-12-24T00:09:54.939Z,68.43
2022-12-24T00:10:27.019Z,68.15
2022-12-24T00:10:59.686Z,68.38
2022-12-24T00:11:31.923Z,68.65
2022-12-24T00:12:04.206Z,68.86
2022-12-24T00:12:36.573Z,68.91
2022-12-24T00:13:08.611Z,68.85
2022-12-24T00:13:40.625Z,68.83
2022-12-24T00:14:12.608Z,68.63
2022-12-24T00:14:44.671Z,68.23
2022-12-24T00:15:16.781Z,67.41
2022-12-24T00:15:49.168Z,66.73
2022-12-24T00:16:21.338Z,65.94
2022-12-24T00:16:53.495Z,65.40
2022-12-24T00:17:26.005Z,64.87
2022-12-24T00:17:58.099Z,64.47
2022-12-24T00:18:30.377Z,64.01
2022-12-24T00:19:02.434Z,63.75
2022-12-24T00:19:34.501Z,63.29
2022-12-24T00:20:08.236Z,62.88
2022-12-24T00:20:40.187Z,62.63
2022-12-24T00:21:12.184Z,62.30
2022-12-24T00:21:44.117Z,62.06
2022-12-24T00:22:16.151Z,61.72
2022-12-24T00:22:48.219Z,61.49
2022-12-24T00:23:21.350Z,61.27
2022-12-24T00:23:53.545Z,61.17
2022-12-24T00:24:25.698Z,61.00
2022-12-24T00:24:57.636Z,60.63
2022-12-24T00:25:29.719Z,60.33
2022-12-24T00:26:01.870Z,60.30
2022-12-24T00:26:35.131Z,60.30
2022-12-24T00:27:07.284Z,60.30
2022-12-24T00:27:39.386Z,60.33
2022-12-24T00:28:12.029Z,60.56
2022-12-24T00:28:44.157Z,60.98
2022-12-24T00:29:16.203Z,61.15
2022-12-24T00:29:48.270Z,61.15
2022-12-24T00:30:20.408Z,61.15
2022-12-24T00:30:52.426Z,61.15
2022-12-24T00:31:24.963Z,61.16
2022-12-24T00:31:57.016Z,61.21
2022-12-24T00:32:28.958Z,61.24
2022-12-24T00:33:00.915Z,61.37
2022-12-24T00:33:32.980Z,61.45
2022-12-24T00:34:05.019Z,61.68
2022-12-24T00:34:37.273Z,61.99
2022-12-24T00:35:09.544Z,62.27
2022-12-24T00:35:41.626Z,62.56
2022-12-24T00:36:14.335Z,62.71
2022-12-24T00:36:46.641Z,62.91
2022-12-24T00:37:18.676Z,63.23
2022-12-24T00:37:50.862Z,63.50
2022-12-24T00:38:22.822Z,63.63
2022-12-24T00:38:54.823Z,63.58
2022-12-24T00:39:26.838Z,63.60
2022-12-24T00:39:58.815Z,63.80
2022-12-24T00:40:31.200Z,63.94
2022-12-24T00:41:05.413Z,64.01
2022-12-24T00:41:37.339Z,64.15
2022-12-24T00:42:09.782Z,64.31
2022-12-24T00:42:42.035Z,64.38
2022-12-24T00:43:14.289Z,64.50
2022-12-24T00:43:46.584Z,64.68
2022-12-24T00:44:19.121Z,64.79
2022-12-24T00:44:51.066Z,64.90
2022-12-24T00:45:23.170Z,65.01
2022-12-24T00:45:56.152Z,65.23
2022-12-24T00:46:30.723Z,65.40
2022-12-24T00:47:06.887Z,65.50
2022-12-24T00:47:43.783Z,65.52
2022-12-24T00:48:15.819Z,65.50
2022-12-24T00:48:48.434Z,65.59
2022-12-24T00:49:20.595Z,65.74
2022-12-24T00:49:52.675Z,65.77
2022-12-24T00:50:24.689Z,65.85
2022-12-24T00:50:56.696Z,65.96
2022-12-24T00:51:29.215Z,65.98
2022-12-24T00:52:02.879Z,66.02
2022-12-24T00:52:35.543Z,65.97
2022-12-24T00:53:07.435Z,65.95
2022-12-24T00:53:39.803Z,65.94
2022-12-24T00:54:14.019Z,65.90
2022-12-24T00:54:46.140Z,65.88
2022-12-24T00:55:18.159Z,66.03
2022-12-24T00:55:50.178Z,66.07
2022-12-24T00:56:22.455Z,66.13
2022-12-24T00:56:54.441Z,66.24
2022-12-24T00:57:26.526Z,66.44
2022-12-24T00:57:58.493Z,66.56
2022-12-24T00:58:30.545Z,66.72
2022-12-24T00:59:02.505Z,66.94
2022-12-24T00:59:34.552Z,67.21
2022-12-24T01:00:08.812Z,67.43
2022-12-24T01:00:40.859Z,67.61
2022-12-24T01:01:13.317Z,67.83
2022-12-24T01:01:45.560Z,67.94
2022-12-24T01:02:18.032Z,68.04
2022-12-24T01:02:50.815Z,68.25
2022-12-24T01:03:23.145Z,68.32
2022-12-24T01:04:14.591Z,68.44
2022-12-24T01:05:05.466Z,68.37
2022-12-24T01:05:37.483Z,68.37
2022-12-24T01:06:17.125Z,68.58
2022-12-24T01:06:49.213Z,68.64
2022-12-24T01:07:21.542Z,68.75
2022-12-24T01:07:54.166Z,68.80
2022-12-24T01:08:26.125Z,68.80
2022-12-24T01:08:58.091Z,68.81
2022-12-24T01:09:30.099Z,68.87
2022-12-24T01:10:02.391Z,68.92
2022-12-24T01:10:34.600Z,68.98
2022-12-24T01:11:08.338Z,69.06
2022-12-24T01:11:40.603Z,69.11
2022-12-24T01:12:12.814Z,69.17
2022-12-24T01:12:45.398Z,69.25
2022-12-24T01:13:17.428Z,69.30
2022-12-24T01:13:49.488Z,69.43
2022-12-24T01:14:21.584Z,69.39
2022-12-24T01:14:53.690Z,69.36
2022-12-24T01:15:25.820Z,69.37
2022-12-24T01:15:57.998Z,69.40
2022-12-24T01:16:30.136Z,69.39
2022-12-24T01:17:02.441Z,69.38
2022-12-24T01:17:35.150Z,69.44
2022-12-24T01:18:07.381Z,69.49
2022-12-24T01:18:39.747Z,69.56
2022-12-24T01:19:12.372Z,69.60
2022-12-24T01:19:44.437Z,69.65
2022-12-24T01:20:17.101Z,69.72
2022-12-24T01:21:01.138Z,69.73
2022-12-24T01:21:33.266Z,69.58
2022-12-24T01:22:05.174Z,69.73
2022-12-24T01:22:37.090Z,69.77
2022-12-24T01:23:09.146Z,69.75
2022-12-24T01:23:41.723Z,69.65
2022-12-24T01:24:15.249Z,69.61
2022-12-24T01:24:47.690Z,69.66
2022-12-24T01:25:19.945Z,69.75
2022-12-24T01:25:52.620Z,69.73
2022-12-24T01:26:24.642Z,69.68
2022-12-24T01:26:56.635Z,69.64
2022-12-24T01:27:28.524Z,69.57
2022-12-24T01:28:00.494Z,69.54
2022-12-24T01:28:33.806Z,69.53
2022-12-24T01:29:05.779Z,69.50
2022-12-24T01:29:37.789Z,69.54
2022-12-24T01:30:14.454Z,69.61
2022-12-24T01:30:47.330Z,69.54
2022-12-24T01:31:19.811Z,69.47
2022-12-24T01:31:52.268Z,69.43
2022-12-24T01:32:24.383Z,69.40
2022-12-24T01:32:56.436Z,69.41
2022-12-24T01:33:29.981Z,69.44
2022-12-24T01:34:01.970Z,69.47
2022-12-24T01:34:34.046Z,69.50
2022-12-24T01:35:06.577Z,69.50
2022-12-24T01:35:42.805Z,69.53
2022-12-24T01:36:15.371Z,69.51
2022-12-24T01:36:47.381Z,69.56
2022-12-24T01:37:19.647Z,69.57
2022-12-24T01:37:51.678Z,69.51
2022-12-24T01:38:23.912Z,69.50
2022-12-24T01:38:55.833Z,69.48
2022-12-24T01:39:27.827Z,69.43
2022-12-24T01:40:18.337Z,69.42
2022-12-24T01:41:08.936Z,69.25
2022-12-24T01:41:59.775Z,69.26
2022-12-24T01:42:50.346Z,69.16
2022-12-24T01:43:24.756Z,69.24
2022-12-24T01:43:56.664Z,69.33
2022-12-24T01:44:37.059Z,69.24
2022-12-24T01:45:36.408Z,69.12
2022-12-24T01:46:34.869Z,69.06
2022-12-24T01:47:27.743Z,69.22
2022-12-24T01:47:59.787Z,69.24
2022-12-24T01:48:34.641Z,69.38
2022-12-24T01:49:13.673Z,69.42
2022-12-24T01:49:52.631Z,69.43
2022-12-24T01:50:24.883Z,69.45
2022-12-24T01:51:23.055Z,69.50
2022-12-24T01:52:08.756Z,69.43
2022-12-24T01:52:42.717Z,69.50
2022-12-24T01:53:15.967Z,69.52
2022-12-24T01:53:54.746Z,69.43
2022-12-24T01:54:35.099Z,69.41
2022-12-24T01:55:13.292Z,69.47
2022-12-24T01:55:47.603Z,69.45
2022-12-24T01:56:20.835Z,69.45
2022-12-24T01:57:00.949Z,69.51
2022-12-24T01:57:42.988Z,69.51
2022-12-24T01:58:17.436Z,69.57
2022-12-24T01:58:55.532Z,69.56
2022-12-24T01:59:29.130Z,69.54
2022-12-24T02:00:07.139Z,69.58
2022-12-24T02:00:39.232Z,69.45
2022-12-24T02:01:11.593Z,69.43
2022-12-24T02:01:44.987Z,69.43
2022-12-24T02:02:18.902Z,69.45
2022-12-24T02:02:53.770Z,69.41
2022-12-24T02:03:26.215Z,69.40
2022-12-24T02:03:58.914Z,69.53
2022-12-24T02:04:34.117Z,69.53
2022-12-24T02:05:39.603Z,69.52
2022-12-24T02:06:17.624Z,69.52
2022-12-24T02:06:49.794Z,69.67
2022-12-24T02:07:23.051Z,69.64
2022-12-24T02:07:56.485Z,69.59
2022-12-24T02:08:39.436Z,69.58
2022-12-24T02:09:11.752Z,69.44
2022-12-24T02:09:44.155Z,69.38
2022-12-24T02:10:17.363Z,69.51
2022-12-24T02:10:50.578Z,69.52
2022-12-24T02:11:22.442Z,69.60
2022-12-24T02:11:54.610Z,69.64
2022-12-24T02:12:30.037Z,69.62
2022-12-24T02:13:03.012Z,69.63
2022-12-24T02:13:35.196Z,69.66
2022-12-24T02:14:07.524Z,69.63
2022-12-24T02:14:39.455Z,69.69
2022-12-24T02:15:14.536Z,69.74
2022-12-24T02:16:13.312Z,69.78
2022-12-24T02:16:54.123Z,69.83
2022-12-24T02:17:44.629Z,69.58
2022-12-24T02:18:59.848Z,69.56
2022-12-24T02:19:34.804Z,69.59
2022-12-24T02:20:12.795Z,69.62
2022-12-24T02:21:22.216Z,69.46
2022-12-24T02:22:21.926Z,69.44
2022-12-24T02:23:19.364Z,69.46
2022-12-24T02:24:32.674Z,69.57
2022-12-24T02:25:23.941Z,69.46
2022-12-24T02:26:08.425Z,69.38
2022-12-24T02:27:08.282Z,69.40
2022-12-24T02:27:52.089Z,69.38
2022-12-24T02:28:56.905Z,69.42
2022-12-24T02:29:59.183Z,69.47
2022-12-24T02:30:55.653Z,69.53
2022-12-24T02:31:46.845Z,69.72
2022-12-24T02:32:24.783Z,70.18
2022-12-24T02:33:17.173Z,70.04
2022-12-24T02:34:03.539Z,69.91
2022-12-24T02:35:02.800Z,70.05
2022-12-24T02:36:20.687Z,70.08
2022-12-24T02:37:01.883Z,70.20
2022-12-24T02:38:05.967Z,70.54
2022-12-24T02:38:52.783Z,70.61
2022-12-24T02:39:45.850Z,70.58
2022-12-24T02:40:39.380Z,70.57
2022-12-24T02:41:16.237Z,70.53
2022-12-24T02:42:05.515Z,70.48
2022-12-24T02:42:44.463Z,70.58
2022-12-24T02:43:22.614Z,70.64
2022-12-24T02:43:57.353Z,70.75
2022-12-24T02:44:33.979Z,70.98
2022-12-24T02:45:11.561Z,70.85
2022-12-24T02:45:49.564Z,70.79
2022-12-24T02:46:26.300Z,70.87
2022-12-24T02:47:00.754Z,70.80
2022-12-24T02:47:34.514Z,70.81
2022-12-24T02:48:07.914Z,70.71
2022-12-24T02:48:42.997Z,70.71
2022-12-24T02:49:15.058Z,71.26
2022-12-24T02:49:48.276Z,71.28
2022-12-24T02:50:20.717Z,71.44
2022-12-24T02:51:05.629Z,71.43
2022-12-24T02:51:37.669Z,71.43
2022-12-24T02:52:54.155Z,71.41
2022-12-24T02:53:26.771Z,71.45
2022-12-24T02:53:59.213Z,71.54
2022-12-24T02:54:32.360Z,71.58
2022-12-24T02:55:07.552Z,71.62
2022-12-24T02:56:03.573Z,71.62
2022-12-24T02:56:54.023Z,71.62
2022-12-24T02:57:49.199Z,71.75
2022-12-24T02:58:52.107Z,71.59
2022-12-24T02:59:33.109Z,71.55
2022-12-24T03:00:12.794Z,71.37
2022-12-24T03:00:56.985Z,71.30
2022-12-24T03:01:41.580Z,71.30
2022-12-24T03:02:32.751Z,71.31
2022-12-24T03:03:28.075Z,71.35
2022-12-24T03:04:40.743Z,71.37
2022-12-24T03:05:21.645Z,71.43
2022-12-24T03:06:23.492Z,71.44
2022-12-24T03:07:05.864Z,71.40
2022-12-24T03:07:40.934Z,71.50
2022-12-24T03:08:16.159Z,71.50
2022-12-24T03:09:19.951Z,71.59
2022-12-24T03:09:57.799Z,71.56
2022-12-24T03:10:46.730Z,71.58
2022-12-24T03:11:19.349Z,71.72
2022-12-24T03:12:15.044Z,71.68
2022-12-24T03:12:51.782Z,71.72
2022-12-24T03:13:26.579Z,71.53
2022-12-24T03:13:59.865Z,71.45
2022-12-24T03:14:34.441Z,71.40
2022-12-24T03:15:11.722Z,71.38
2022-12-24T03:15:46.663Z,71.49
2022-12-24T03:16:24.607Z,71.46
2022-12-24T03:16:58.272Z,71.53
2022-12-24T03:17:34.492Z,71.56
2022-12-24T03:18:10.259Z,71.63
2022-12-24T03:18:45.938Z,71.63
2022-12-24T03:19:20.061Z,71.65
2022-12-24T03:19:55.959Z,71.67
2022-12-24T03:20:57.802Z,71.65
2022-12-24T03:21:35.058Z,71.67
2022-12-24T03:22:10.323Z,71.66
2022-12-24T03:22:42.587Z,71.77
2022-12-24T03:23:15.001Z,71.73
2022-12-24T03:23:47.549Z,71.68
2022-12-24T03:24:19.824Z,71.70
2022-12-24T03:24:51.930Z,71.66
2022-12-24T03:25:26.864Z,71.62
2022-12-24T03:26:02.029Z,71.64
2022-12-24T03:26:35.053Z,71.66
2022-12-24T03:27:09.627Z,71.82
2022-12-24T03:27:43.505Z,71.96
2022-12-24T03:28:18.438Z,71.99
2022-12-24T03:28:50.542Z,72.11
2022-12-24T03:29:22.617Z,72.18
2022-12-24T03:29:55.355Z,72.21
2022-12-24T03:30:27.667Z,72.23
2022-12-24T03:31:10.489Z,72.28
2022-12-24T03:31:49.138Z,72.28
2022-12-24T03:33:05.344Z,72.30
2022-12-24T03:33:39.273Z,72.26
2022-12-24T03:34:14.146Z,72.29
2022-12-24T03:34:47.738Z,72.28
2022-12-24T03:35:21.092Z,72.25
2022-12-24T03:35:54.540Z,72.16
2022-12-24T03:36:31.053Z,72.11
2022-12-24T03:37:04.901Z,72.10
2022-12-24T03:37:38.439Z,72.14
2022-12-24T03:38:12.099Z,72.19
2022-12-24T03:38:45.580Z,72.32
2022-12-24T03:39:19.782Z,72.60
2022-12-24T03:39:53.089Z,72.72
2022-12-24T03:40:27.081Z,72.74
2022-12-24T03:41:01.253Z,72.86
2022-12-24T03:41:34.651Z,72.95
2022-12-24T03:42:07.994Z,72.90
2022-12-24T03:42:42.553Z,72.87
2022-12-24T03:43:16.662Z,72.85
2022-12-24T03:43:49.998Z,72.96
2022-12-24T03:44:23.332Z,73.03
2022-12-24T03:44:56.680Z,73.06
2022-12-24T03:45:31.125Z,73.06
2022-12-24T03:46:07.052Z,73.04
2022-12-24T03:46:40.698Z,73.03
2022-12-24T03:47:14.574Z,73.00
2022-12-24T03:47:47.788Z,72.97
2022-12-24T03:48:21.310Z,72.96
2022-12-24T03:48:54.863Z,73.05
2022-12-24T03:49:28.216Z,73.07
2022-12-24T03:50:01.871Z,73.07
2022-12-24T03:50:35.533Z,73.14
2022-12-24T03:51:21.949Z,73.18
2022-12-24T03:51:55.373Z,73.11
2022-12-24T03:52:29.057Z,73.16
2022-12-24T03:53:02.448Z,73.21
2022-12-24T03:53:36.595Z,73.25
2022-12-24T03:54:10.911Z,73.28
2022-12-24T03:54:44.216Z,73.33
2022-12-24T03:55:17.662Z,73.33
2022-12-24T03:55:50.945Z,73.30
2022-12-24T03:56:24.927Z,73.30
2022-12-24T03:56:58.304Z,73.30
2022-12-24T03:57:31.708Z,73.30
2022-12-24T03:58:05.431Z,73.29
2022-12-24T03:58:38.850Z,73.26
2022-12-24T03:59:12.283Z,73.15
2022-12-24T03:59:45.729Z,73.09
2022-12-24T04:00:21.440Z,73.04
2022-12-24T04:00:54.920Z,73.03
2022-12-24T04:01:28.465Z,73.07
2022-12-24T04:02:02.225Z,73.07
2022-12-24T04:02:35.930Z,73.05
2022-12-24T04:03:09.582Z,72.97
2022-12-24T04:03:43.371Z,72.91
2022-12-24T04:04:16.914Z,72.90
2022-12-24T04:04:50.329Z,73.01
2022-12-24T04:05:23.764Z,73.00
2022-12-24T04:06:09.107Z,73.05
2022-12-24T04:06:42.499Z,73.07
2022-12-24T04:07:16.015Z,73.14
2022-12-24T04:07:49.368Z,73.20
2022-12-24T04:08:22.859Z,73.25
2022-12-24T04:08:56.298Z,73.30
2022-12-24T04:09:29.703Z,73.38
2022-12-24T04:10:03.369Z,73.42
2022-12-24T04:10:36.883Z,73.52
2022-12-24T04:11:16.367Z,73.63
2022-12-24T04:11:49.838Z,73.68
2022-12-24T04:12:23.343Z,73.70
2022-12-24T04:12:56.906Z,73.73
2022-12-24T04:13:30.323Z,73.73
2022-12-24T04:14:04.206Z,73.75
2022-12-24T04:14:48.569Z,73.75
2022-12-24T04:15:22.045Z,73.66
2022-12-24T04:16:05.554Z,73.73
2022-12-24T04:16:39.249Z,73.81
2022-12-24T04:17:12.843Z,73.60
2022-12-24T04:17:46.273Z,73.36
2022-12-24T04:18:19.746Z,73.02
2022-12-24T04:18:53.275Z,72.71
2022-12-24T04:19:26.910Z,72.31
2022-12-24T04:20:00.437Z,72.04
2022-12-24T04:20:33.737Z,72.05
2022-12-24T04:21:08.232Z,71.95
2022-12-24T04:21:41.759Z,71.73
2022-12-24T04:22:15.204Z,71.42
2022-12-24T04:22:48.646Z,71.18
2022-12-24T04:23:22.335Z,71.02
2022-12-24T04:23:55.721Z,70.99
2022-12-24T04:24:29.082Z,71.01
2022-12-24T04:25:02.600Z,71.11
2022-12-24T04:25:38.795Z,71.23
2022-12-24T04:26:13.687Z,71.29
2022-12-24T04:26:47.077Z,71.34
2022-12-24T04:27:30.085Z,71.44
2022-12-24T04:28:04.361Z,71.53
2022-12-24T04:28:39.169Z,71.67
2022-12-24T04:29:13.344Z,71.72
2022-12-24T04:29:47.039Z,71.80
2022-12-24T04:30:20.492Z,71.82
2022-12-24T04:31:01.659Z,71.88
2022-12-24T04:31:35.236Z,71.97
2022-12-24T04:32:10.581Z,72.05
2022-12-24T04:32:44.126Z,72.08
2022-12-24T04:33:17.479Z,72.11
2022-12-24T04:33:52.872Z,72.15
2022-12-24T04:34:27.700Z,72.19
2022-12-24T04:35:01.031Z,72.18
2022-12-24T04:35:34.713Z,72.20
2022-12-24T04:36:12.081Z,72.22
2022-12-24T04:36:45.396Z,72.20
2022-12-24T04:37:18.741Z,72.24
2022-12-24T04:37:52.169Z,72.29
2022-12-24T04:38:26.043Z,72.31
2022-12-24T04:38:59.741Z,72.33
2022-12-24T04:39:33.112Z,72.39
2022-12-24T04:40:07.299Z,72.44
2022-12-24T04:40:40.668Z,72.49
2022-12-24T04:41:23.212Z,72.47
2022-12-24T04:41:57.967Z,72.52
2022-12-24T04:42:31.507Z,72.51
2022-12-24T04:43:04.913Z,72.55
2022-12-24T04:43:38.288Z,72.54
2022-12-24T04:44:12.728Z,72.56
2022-12-24T04:44:46.311Z,72.48
2022-12-24T04:45:19.765Z,72.47
2022-12-24T04:45:53.342Z,72.44
2022-12-24T04:46:32.742Z,72.45
2022-12-24T04:47:06.105Z,72.43
2022-12-24T04:47:39.489Z,72.39
2022-12-24T04:48:12.945Z,72.39
2022-12-24T04:48:49.152Z,72.40
2022-12-24T04:49:22.624Z,72.43
2022-12-24T04:49:56.089Z,72.42
2022-12-24T04:50:29.548Z,72.43
2022-12-24T04:51:04.846Z,72.42
2022-12-24T04:51:38.330Z,72.41
2022-12-24T04:52:11.992Z,72.45
2022-12-24T04:52:45.424Z,72.50
2022-12-24T04:53:19.102Z,72.54
2022-12-24T04:53:53.816Z,72.63
2022-12-24T04:54:27.766Z,72.71
2022-12-24T04:55:01.423Z,72.73
2022-12-24T04:55:34.855Z,72.80
2022-12-24T04:56:14.170Z,72.86
2022-12-24T04:56:47.582Z,72.91
2022-12-24T04:57:21.769Z,73.00
2022-12-24T04:57:55.221Z,73.02
2022-12-24T04:58:29.095Z,73.03
2022-12-24T04:59:02.607Z,73.03
2022-12-24T04:59:35.951Z,73.07
2022-12-24T05:00:10.908Z,73.13
2022-12-24T05:00:44.466Z,73.15
2022-12-24T05:01:23.952Z,73.15
2022-12-24T05:01:57.735Z,73.18
2022-12-24T05:02:31.374Z,73.20
2022-12-24T05:03:05.166Z,73.17
2022-12-24T05:03:38.780Z,73.12
2022-12-24T05:04:12.421Z,73.05
2022-12-24T05:04:45.883Z,72.98
2022-12-24T05:05:19.281Z,72.96
2022-12-24T05:05:57.913Z,72.92
2022-12-24T05:06:34.740Z,72.91
2022-12-24T05:07:08.037Z,72.86
2022-12-24T05:07:41.415Z,72.79
2022-12-24T05:08:15.444Z,72.74
2022-12-24T05:08:48.907Z,72.71
2022-12-24T05:09:22.289Z,72.67
2022-12-24T05:09:55.661Z,72.63
2022-12-24T05:10:30.145Z,72.63
2022-12-24T05:11:04.986Z,72.60
2022-12-24T05:11:38.605Z,72.58
2022-12-24T05:12:11.959Z,72.58
2022-12-24T05:12:46.009Z,72.57
2022-12-24T05:13:19.449Z,72.56
2022-12-24T05:13:53.265Z,72.54
2022-12-24T05:14:26.865Z,72.59
2022-12-24T05:15:00.555Z,72.56
2022-12-24T05:15:34.352Z,72.64
2022-12-24T05:16:08.663Z,72.65
2022-12-24T05:16:42.148Z,72.65
2022-12-24T05:17:15.495Z,72.65
2022-12-24T05:17:49.334Z,72.57
2022-12-24T05:18:23.887Z,72.54
2022-12-24T05:18:57.263Z,72.53
2022-12-24T05:19:30.710Z,72.55
2022-12-24T05:20:04.961Z,72.56
2022-12-24T05:20:38.474Z,72.53
2022-12-24T05:21:16.358Z,72.57
2022-12-24T05:22:10.613Z,72.56
2022-12-24T05:23:02.882Z,72.63
2022-12-24T05:23:56.963Z,72.57
2022-12-24T05:24:49.269Z,72.49
2022-12-24T05:25:41.415Z,72.43
2022-12-24T05:26:22.791Z,72.47
2022-12-24T05:26:59.003Z,72.42
2022-12-24T05:27:32.659Z,72.36
2022-12-24T05:28:06.448Z,72.34
2022-12-24T05:28:39.916Z,72.40
2022-12-24T05:29:13.611Z,72.45
2022-12-24T05:29:47.071Z,72.49
2022-12-24T05:30:20.469Z,72.51
2022-12-24T05:30:53.858Z,72.49
2022-12-24T05:31:29.854Z,72.46
2022-12-24T05:32:03.237Z,72.46
2022-12-24T05:32:36.597Z,72.48
2022-12-24T05:33:10.235Z,72.46
2022-12-24T05:33:43.946Z,72.49
2022-12-24T05:34:18.335Z,72.53
2022-12-24T05:34:51.982Z,72.63
2022-12-24T05:35:25.460Z,72.76
2022-12-24T05:35:58.851Z,72.89
2022-12-24T05:36:33.100Z,72.97
2022-12-24T05:37:06.676Z,73.01
2022-12-24T05:37:40.256Z,73.09
2022-12-24T05:38:14.012Z,73.15
2022-12-24T05:38:47.833Z,73.19
2022-12-24T05:39:21.347Z,73.20
2022-12-24T05:39:54.897Z,73.26
2022-12-24T05:40:28.579Z,73.34
2022-12-24T05:41:02.072Z,73.37
2022-12-24T05:41:35.745Z,73.39
2022-12-24T05:42:09.348Z,73.44
2022-12-24T05:42:42.822Z,73.45
2022-12-24T05:43:16.434Z,73.48
2022-12-24T05:43:50.201Z,73.52
2022-12-24T05:44:23.717Z,73.54
2022-12-24T05:44:57.108Z,73.59
2022-12-24T05:45:30.513Z,73.66
2022-12-24T05:46:07.635Z,73.65
2022-12-24T05:46:41.240Z,73.66
2022-12-24T05:47:14.904Z,73.66
2022-12-24T05:47:48.386Z,73.68
2022-12-24T05:48:21.704Z,73.69
2022-12-24T05:48:55.171Z,73.70
2022-12-24T05:49:29.286Z,73.73
2022-12-24T05:50:03.181Z,73.76
2022-12-24T05:50:39.200Z,73.81
2022-12-24T05:51:14.667Z,73.78
2022-12-24T05:51:48.069Z,73.80
2022-12-24T05:52:21.527Z,73.73
2022-12-24T05:52:54.869Z,73.65
2022-12-24T05:53:28.479Z,73.60
2022-12-24T05:54:02.488Z,73.58
2022-12-24T05:54:35.820Z,73.63
2022-12-24T05:55:09.892Z,73.64
2022-12-24T05:55:43.449Z,73.65
2022-12-24T05:56:20.153Z,73.59
2022-12-24T05:56:53.687Z,73.57
2022-12-24T05:57:27.044Z,73.60
2022-12-24T05:58:01.077Z,73.67
2022-12-24T05:58:35.404Z,73.67
2022-12-24T05:59:08.815Z,73.74
2022-12-24T05:59:42.158Z,73.84
2022-12-24T06:00:16.558Z,73.92
2022-12-24T06:00:53.366Z,73.92
2022-12-24T06:01:28.019Z,73.93
2022-12-24T06:02:01.632Z,73.96
2022-12-24T06:02:35.164Z,74.04
2022-12-24T06:03:08.989Z,74.15
2022-12-24T06:03:42.482Z,74.26
2022-12-24T06:04:15.983Z,74.30
2022-12-24T06:04:49.862Z,74.31
2022-12-24T06:05:23.388Z,74.31
2022-12-24T06:06:09.310Z,74.38
2022-12-24T06:06:42.733Z,74.45
2022-12-24T06:07:16.065Z,74.47
2022-12-24T06:07:49.371Z,74.52
2022-12-24T06:08:23.044Z,74.54
2022-12-24T06:08:57.160Z,74.62
2022-12-24T06:09:30.655Z,74.67
2022-12-24T06:10:04.416Z,74.71
2022-12-24T06:10:37.836Z,74.76
2022-12-24T06:11:14.437Z,74.79
2022-12-24T06:11:47.896Z,74.87
2022-12-24T06:12:21.361Z,74.83
2022-12-24T06:12:55.983Z,74.83
2022-12-24T06:13:30.521Z,74.83
2022-12-24T06:14:03.960Z,74.89
2022-12-24T06:14:37.645Z,74.94
2022-12-24T06:15:11.396Z,74.99
2022-12-24T06:15:45.135Z,74.97
2022-12-24T06:16:20.880Z,74.85
2022-12-24T06:16:54.748Z,74.82
2022-12-24T06:17:28.373Z,74.76
2022-12-24T06:18:02.059Z,74.72
2022-12-24T06:18:37.083Z,74.67
2022-12-24T06:19:10.600Z,74.62
2022-12-24T06:19:44.756Z,74.60
2022-12-24T06:20:18.640Z,74.58
2022-12-24T06:20:54.055Z,74.55
2022-12-24T06:21:27.822Z,74.56
2022-12-24T06:22:01.373Z,74.54
2022-12-24T06:22:34.894Z,74.46
2022-12-24T06:23:08.606Z,74.41
2022-12-24T06:23:44.157Z,74.39
2022-12-24T06:24:17.813Z,74.42
2022-12-24T06:24:51.245Z,74.42
2022-12-24T06:25:24.888Z,74.43
2022-12-24T06:26:03.380Z,74.44
2022-12-24T06:26:36.923Z,74.42
2022-12-24T06:27:10.520Z,74.31
2022-12-24T06:27:43.820Z,74.32
2022-12-24T06:28:18.235Z,74.28
2022-12-24T06:28:52.612Z,74.20
2022-12-24T06:29:27.469Z,74.12
2022-12-24T06:30:01.469Z,74.09
2022-12-24T06:30:34.894Z,74.07
2022-12-24T06:31:13.196Z,73.99
2022-12-24T06:31:47.166Z,73.91
2022-12-24T06:32:21.388Z,73.88
2022-12-24T06:32:55.140Z,73.81
2022-12-24T06:33:29.053Z,73.75
2022-12-24T06:34:02.464Z,73.74
2022-12-24T06:34:36.379Z,73.73
2022-12-24T06:35:09.917Z,73.70
2022-12-24T06:35:45.906Z,73.57
2022-12-24T06:36:24.074Z,73.51
2022-12-24T06:36:58.112Z,73.50
2022-12-24T06:37:32.511Z,73.44
2022-12-24T06:38:06.547Z,73.31
2022-12-24T06:38:40.578Z,73.24
2022-12-24T06:39:14.460Z,73.26
2022-12-24T06:39:48.409Z,73.28
2022-12-24T06:40:22.547Z,73.21
2022-12-24T06:40:56.385Z,73.19
2022-12-24T06:41:30.663Z,73.21
2022-12-24T06:42:04.857Z,73.21
2022-12-24T06:42:38.732Z,73.16
2022-12-24T06:43:14.419Z,73.15
2022-12-24T06:43:50.099Z,73.09
2022-12-24T06:44:24.542Z,73.05
2022-12-24T06:45:02.287Z,73.04
2022-12-24T06:45:46.986Z,73.06
2022-12-24T06:46:22.508Z,73.13
2022-12-24T06:46:56.726Z,73.18
2022-12-24T06:47:30.822Z,73.25
2022-12-24T06:48:07.390Z,73.30
2022-12-24T06:48:41.461Z,73.30
2022-12-24T06:49:16.060Z,73.34
2022-12-24T06:49:50.286Z,73.32
2022-12-24T06:50:24.647Z,73.35
2022-12-24T06:50:58.839Z,73.42
2022-12-24T06:51:33.193Z,73.45
2022-12-24T06:52:07.111Z,73.52
2022-12-24T06:52:41.403Z,73.56
2022-12-24T06:53:15.891Z,73.59
2022-12-24T06:53:53.592Z,73.65
2022-12-24T06:54:28.004Z,73.72
2022-12-24T06:55:02.159Z,73.75
2022-12-24T06:55:36.103Z,73.79
2022-12-24T06:56:12.744Z,73.83
2022-12-24T06:56:46.870Z,73.86
2022-12-24T06:57:21.046Z,73.89
2022-12-24T06:57:55.214Z,73.94
2022-12-24T06:58:29.553Z,74.03
2022-12-24T06:59:05.733Z,74.09
2022-12-24T06:59:40.254Z,74.16
2022-12-24T07:00:15.696Z,74.27
2022-12-24T07:00:49.704Z,74.31
2022-12-24T07:01:24.845Z,74.37
2022-12-24T07:01:59.346Z,74.41
2022-12-24T07:02:33.778Z,74.46
2022-12-24T07:03:07.768Z,74.54
2022-12-24T07:03:42.287Z,74.62
2022-12-24T07:04:20.095Z,74.66
2022-12-24T07:04:54.478Z,74.74
2022-12-24T07:05:28.929Z,74.77
2022-12-24T07:06:03.294Z,74.82
2022-12-24T07:06:37.061Z,74.87
2022-12-24T07:07:10.900Z,74.96
2022-12-24T07:07:46.032Z,74.99
2022-12-24T07:08:19.980Z,75.03
2022-12-24T07:08:53.887Z,75.07
2022-12-24T07:09:27.868Z,75.09
2022-12-24T07:10:01.969Z,75.10
2022-12-24T07:10:35.857Z,75.09
2022-12-24T07:11:09.631Z,75.07
2022-12-24T07:11:43.573Z,75.08
2022-12-24T07:12:17.331Z,75.16
2022-12-24T07:12:51.577Z,75.25
2022-12-24T07:13:25.584Z,75.30
2022-12-24T07:13:59.541Z,75.31
2022-12-24T07:14:33.446Z,75.31
2022-12-24T07:15:07.985Z,75.30
2022-12-24T07:15:41.696Z,75.28
2022-12-24T07:16:17.006Z,75.31
2022-12-24T07:16:56.872Z,75.25
2022-12-24T07:17:33.223Z,75.12
2022-12-24T07:18:07.225Z,75.03
2022-12-24T07:18:41.180Z,74.96
2022-12-24T07:19:15.716Z,74.88
2022-12-24T07:19:49.497Z,74.84
2022-12-24T07:20:23.527Z,74.77
2022-12-24T07:20:58.141Z,74.75
2022-12-24T07:21:32.283Z,74.75
2022-12-24T07:22:11.682Z,74.72
2022-12-24T07:22:48.944Z,74.71
2022-12-24T07:23:23.161Z,74.69
2022-12-24T07:23:57.170Z,74.67
2022-12-24T07:24:31.090Z,74.67
2022-12-24T07:25:05.261Z,74.56
2022-12-24T07:25:43.160Z,74.49
2022-12-24T07:26:17.248Z,74.46
2022-12-24T07:26:51.481Z,74.42
2022-12-24T07:27:25.439Z,74.45
2022-12-24T07:27:59.212Z,74.47
2022-12-24T07:28:34.051Z,74.50
2022-12-24T07:29:08.386Z,74.47
2022-12-24T07:29:42.396Z,74.48
2022-12-24T07:30:16.371Z,74.45
2022-12-24T07:30:50.446Z,74.41
2022-12-24T07:31:24.359Z,74.44
2022-12-24T07:31:58.453Z,74.45
2022-12-24T07:32:32.259Z,74.46
2022-12-24T07:33:06.208Z,74.51
2022-12-24T07:33:40.179Z,74.53
2022-12-24T07:34:14.180Z,74.44
2022-12-24T07:34:48.176Z,74.37
2022-12-24T07:35:22.163Z,74.26
2022-12-24T07:36:03.730Z,74.21
2022-12-24T07:36:37.673Z,74.17
2022-12-24T07:37:12.063Z,74.20
2022-12-24T07:37:46.175Z,74.19
2022-12-24T07:38:19.760Z,74.13
2022-12-24T07:38:53.293Z,73.95
2022-12-24T07:39:27.115Z,73.84
2022-12-24T07:40:00.959Z,73.77
2022-12-24T07:40:35.475Z,73.85